Time;durP1;ratioP1;P1;durP2;ratioP2;P2;SDS_P1;SDS_P2;PMS_P1;PMS_P2;Temp;Humidity;BMP_temperature;BMP_pressure;BME280_temperature;BME280_humidity;BME280_pressure;Samples;Min_cycle;Max_cycle;Signal;HPM_P1;HPM_P2
2023/04/20 00:01:23;;;;;;;;;;;;;;;19.82;43.88;100352.95;102883;1297;62352;-83
2023/04/20 00:03:49;;;;;;;;;;;;;;;19.82;43.81;100355.60;103024;1291;62363;-83
2023/04/20 00:06:15;;;;;;;;;;;;;;;19.82;43.91;100355.61;102989;1291;63239;-83
2023/04/20 00:08:41;;;;;;;;;;;;;;;19.82;43.93;100355.06;102949;1291;62212;-82
2023/04/20 00:11:07;;;;;;;;;;;;;;;19.82;43.87;100353.29;102926;1291;62302;-83
2023/04/20 00:13:32;;;;;;;;;;;;;;;19.82;43.66;100348.84;102991;1290;75587;-82
2023/04/20 00:15:58;;;;;;;;;;;;;;;19.82;43.92;100346.88;103070;1291;63288;-83
2023/04/20 00:18:23;;;;;;;;;;;;;;;19.82;43.97;100347.08;103000;1296;62205;-83
2023/04/20 00:20:49;;;;;;;;;;;;;;;19.81;43.99;100340.51;102990;1292;62291;-84
2023/04/20 00:23:15;;;;;;;;;;;;;;;19.82;43.86;100343.14;102999;1291;62206;-83
2023/04/20 00:25:41;;;;;;;;;;;;;;;19.82;43.72;100342.27;103014;1291;76103;-83
2023/04/20 00:28:06;;;;;;;;;;;;;;;19.81;43.91;100343.52;103019;1291;62191;-83
2023/04/20 00:30:32;;;;;;;;;;;;;;;19.81;43.91;100343.91;103042;1291;62263;-82
2023/04/20 00:32:57;;;;;;;;;;;;;;;19.81;43.95;100342.11;102970;1297;62278;-83
2023/04/20 00:35:23;;;;;;;;;;;;;;;19.81;43.74;100341.95;103032;1291;63515;-83
2023/04/20 00:37:48;;;;;;;;;;;;;;;19.81;43.91;100337.13;103763;1283;62497;-83
2023/04/20 00:40:14;;;;;;;;;;;;;;;19.81;43.85;100339.29;103910;1286;62072;-82
2023/04/20 00:42:41;;;;;;;;;;;;;;;19.80;43.83;100336.97;103815;1283;63362;-83
2023/04/20 00:45:06;;;;;;;;;;;;;;;19.80;43.86;100339.11;103874;1283;62107;-82
2023/04/20 00:47:35;;;;;;;;;;;;;;;19.80;43.81;100341.08;103858;1282;76365;-84
2023/04/20 00:50:01;;;;;;;;;;;;;;;19.80;43.87;100340.01;103835;1283;62191;-82
2023/04/20 00:52:26;;;;;;;;;;;;;;;19.81;43.97;100339.65;103790;1283;62202;-83
2023/04/20 00:54:52;;;;;;;;;;;;;;;19.80;43.74;100342.16;103779;1283;62175;-84
2023/04/20 00:57:21;;;;;;;;;;;;;;;19.80;43.79;100340.77;103856;1285;62283;-82
2023/04/20 00:59:46;;;;;;;;;;;;;;;19.80;43.97;100336.98;103741;1283;76090;-84
2023/04/20 01:02:12;;;;;;;;;;;;;;;19.80;43.86;100338.96;103805;1283;62743;-83
2023/04/20 01:04:38;;;;;;;;;;;;;;;19.80;43.81;100335.41;103839;1283;62195;-83
2023/04/20 01:07:04;;;;;;;;;;;;;;;19.79;43.92;100336.31;103830;1289;62197;-83
2023/04/20 01:09:30;;;;;;;;;;;;;;;19.79;43.82;100334.02;103832;1287;62666;-83
2023/04/20 01:11:56;;;;;;;;;;;;;;;19.79;44.04;100336.70;103861;1282;62126;-82
2023/04/20 01:14:22;;;;;;;;;;;;;;;19.79;43.84;100336.48;103907;1289;62239;-82
2023/04/20 01:16:48;;;;;;;;;;;;;;;19.79;43.81;100339.73;103815;1285;62179;-84
2023/04/20 01:19:14;;;;;;;;;;;;;;;19.79;43.98;100334.77;103773;1288;62089;-83
2023/04/20 01:21:40;;;;;;;;;;;;;;;19.79;43.99;100334.42;103851;1282;62132;-82
2023/04/20 01:24:05;;;;;;;;;;;;;;;19.78;43.77;100337.11;103801;1288;62257;-85
2023/04/20 01:26:31;;;;;;;;;;;;;;;19.78;43.73;100332.85;103682;1282;62116;-83
2023/04/20 01:28:57;;;;;;;;;;;;;;;19.79;43.95;100331.56;103860;1285;62075;-83
2023/04/20 01:31:24;;;;;;;;;;;;;;;19.78;43.88;100333.74;103833;1283;62877;-82
2023/04/20 01:33:50;;;;;;;;;;;;;;;19.78;43.78;100332.48;103799;1287;63376;-83
2023/04/20 01:36:15;;;;;;;;;;;;;;;19.77;43.84;100330.02;103814;1287;62289;-84
2023/04/20 01:38:41;;;;;;;;;;;;;;;19.78;43.88;100329.66;103817;1288;62204;-82
2023/04/20 01:41:07;;;;;;;;;;;;;;;19.77;43.91;100326.29;103758;1282;62906;-83
2023/04/20 01:43:33;;;;;;;;;;;;;;;19.77;43.81;100323.98;103899;1282;62185;-82
2023/04/20 01:45:58;;;;;;;;;;;;;;;19.77;43.91;100322.73;103837;1287;62759;-81
2023/04/20 01:48:27;;;;;;;;;;;;;;;19.77;44.02;100319.34;103916;1282;62395;-81
2023/04/20 01:50:53;;;;;;;;;;;;;;;19.76;43.82;100323.66;103866;1282;62187;-83
2023/04/20 01:53:19;;;;;;;;;;;;;;;19.76;43.96;100319.37;103653;1288;62283;-83
2023/04/20 01:55:45;;;;;;;;;;;;;;;19.76;43.96;100318.66;103814;1285;62167;-82
2023/04/20 01:58:11;;;;;;;;;;;;;;;19.76;43.81;100313.70;103778;1283;62234;-83
2023/04/20 02:00:37;;;;;;;;;;;;;;;19.77;43.87;100314.89;103845;1288;62185;-84
2023/04/20 02:03:02;;;;;;;;;;;;;;;19.76;43.79;100312.80;103787;1283;62653;-82
2023/04/20 02:05:28;;;;;;;;;;;;;;;19.76;43.94;100313.36;103818;1288;62213;-82
2023/04/20 02:07:53;;;;;;;;;;;;;;;19.75;43.88;100312.11;103797;1288;62927;-82
2023/04/20 02:10:19;;;;;;;;;;;;;;;19.75;43.92;100312.48;103796;1288;62171;-83
2023/04/20 02:12:44;;;;;;;;;;;;;;;19.76;43.73;100311.75;103809;1282;62525;-84
2023/04/20 02:15:10;;;;;;;;;;;;;;;19.75;43.83;100307.50;103743;1283;62304;-82
2023/04/20 02:17:36;;;;;;;;;;;;;;;19.75;43.90;100310.73;103775;1283;76223;-83
2023/04/20 02:20:06;;;;;;;;;;;;;;;19.75;43.80;100311.63;103816;1288;62203;-83
2023/04/20 02:22:35;;;;;;;;;;;;;;;19.75;43.86;100310.00;103817;1283;63037;-83
2023/04/20 02:25:17;;;;;;;;;;;;;;;19.75;43.81;100314.67;103731;1287;73651;-83
2023/04/20 02:27:42;;;;;;;;;;;;;;;19.74;43.85;100312.39;103780;1283;62833;-83
2023/04/20 02:30:09;;;;;;;;;;;;;;;19.74;43.70;100316.13;103748;1288;63314;-83
2023/04/20 02:32:34;;;;;;;;;;;;;;;19.74;43.90;100318.63;103802;1288;62101;-83
2023/04/20 02:35:00;;;;;;;;;;;;;;;19.74;43.84;100325.60;103817;1288;62548;-83
2023/04/20 02:37:26;;;;;;;;;;;;;;;19.74;44.02;100327.05;103864;1283;62648;-83
2023/04/20 02:39:52;;;;;;;;;;;;;;;19.74;43.75;100326.50;103791;1288;62589;-83
2023/04/20 02:42:18;;;;;;;;;;;;;;;19.74;43.87;100326.69;103767;1286;62289;-83
2023/04/20 02:44:43;;;;;;;;;;;;;;;19.74;43.77;100333.85;103852;1288;63311;-84
2023/04/20 02:47:09;;;;;;;;;;;;;;;19.74;43.79;100328.66;103806;1288;62187;-82
2023/04/20 02:49:35;;;;;;;;;;;;;;;19.73;43.96;100330.13;103788;1288;62239;-83
2023/04/20 02:52:01;;;;;;;;;;;;;;;19.73;43.76;100327.80;103895;1283;62068;-83
2023/04/20 02:54:26;;;;;;;;;;;;;;;19.74;43.95;100325.48;103826;1282;62172;-83
2023/04/20 02:56:52;;;;;;;;;;;;;;;19.73;43.86;100322.83;103794;1287;62088;-83
2023/04/20 02:59:18;;;;;;;;;;;;;;;19.73;43.95;100325.14;103796;1283;62241;-83
2023/04/20 03:01:43;;;;;;;;;;;;;;;19.73;43.86;100322.31;103720;1288;62196;-83
2023/04/20 03:04:09;;;;;;;;;;;;;;;19.72;43.82;100321.27;103793;1288;62333;-83
2023/04/20 03:06:35;;;;;;;;;;;;;;;19.72;43.86;100320.92;103852;1289;62188;-83
2023/04/20 03:09:01;;;;;;;;;;;;;;;19.72;43.80;100317.70;103794;1283;62136;-82
2023/04/20 03:11:27;;;;;;;;;;;;;;;19.72;43.84;100321.32;103781;1288;62278;-82
2023/04/20 03:13:52;;;;;;;;;;;;;;;19.72;43.75;100317.91;103762;1288;62464;-84
2023/04/20 03:16:18;;;;;;;;;;;;;;;19.72;43.80;100314.89;103841;1283;62123;-84
2023/04/20 03:18:43;;;;;;;;;;;;;;;19.72;43.80;100314.02;103805;1288;63468;-83
2023/04/20 03:21:09;;;;;;;;;;;;;;;19.71;43.84;100314.38;103604;1289;63409;-83
2023/04/20 03:23:37;;;;;;;;;;;;;;;19.72;43.86;100314.19;103724;1288;62554;-83
2023/04/20 03:26:03;;;;;;;;;;;;;;;19.72;43.81;100315.09;103806;1287;76545;-83
2023/04/20 03:28:29;;;;;;;;;;;;;;;19.71;43.81;100316.89;103762;1288;62200;-84
2023/04/20 03:30:54;;;;;;;;;;;;;;;19.71;43.71;100317.95;103802;1282;62277;-83
2023/04/20 03:33:20;;;;;;;;;;;;;;;19.71;43.86;100317.80;103780;1282;63295;-82
2023/04/20 03:35:45;;;;;;;;;;;;;;;19.71;43.77;100316.55;103777;1285;62191;-82
2023/04/20 03:38:11;;;;;;;;;;;;;;;19.71;43.79;100320.68;103870;1283;62216;-81
2023/04/20 03:40:36;;;;;;;;;;;;;;;19.70;43.71;100320.89;103836;1283;62126;-82
2023/04/20 03:43:02;;;;;;;;;;;;;;;19.70;43.64;100323.05;103835;1282;62064;-83
2023/04/20 03:45:27;;;;;;;;;;;;;;;19.70;43.67;100322.19;103873;1288;63374;-82
2023/04/20 03:47:53;;;;;;;;;;;;;;;19.70;43.82;100322.55;103865;1288;62220;-83
2023/04/20 03:50:18;;;;;;;;;;;;;;;19.69;43.80;100319.38;103847;1288;62197;-83
2023/04/20 03:52:44;;;;;;;;;;;;;;;19.69;43.68;100319.73;103779;1283;62265;-83
2023/04/20 03:55:09;;;;;;;;;;;;;;;19.69;43.68;100320.84;103807;1288;62273;-84
2023/04/20 03:57:36;;;;;;;;;;;;;;;19.69;43.68;100323.88;103700;1289;63493;-83
2023/04/20 04:00:02;;;;;;;;;;;;;;;19.68;43.67;100326.21;103822;1283;62703;-84
2023/04/20 04:02:29;;;;;;;;;;;;;;;19.68;43.67;100325.67;103896;1288;62200;-83
2023/04/20 04:04:55;;;;;;;;;;;;;;;19.68;43.72;100324.83;103790;1288;62137;-83
2023/04/20 04:07:21;;;;;;;;;;;;;;;19.68;43.59;100318.04;103855;1283;63411;-83
2023/04/20 04:09:47;;;;;;;;;;;;;;;19.68;43.67;100309.66;103757;1288;62139;-82
2023/04/20 04:12:12;;;;;;;;;;;;;;;19.68;43.79;100311.08;104047;1282;62289;-82
2023/04/20 04:14:38;;;;;;;;;;;;;;;19.67;43.69;100313.26;104225;1283;62024;-84
2023/04/20 04:17:03;;;;;;;;;;;;;;;19.67;43.71;100315.41;104102;1288;62117;-84
2023/04/20 04:19:29;;;;;;;;;;;;;;;19.67;43.76;100318.29;104047;1288;62104;-84
2023/04/20 04:21:56;;;;;;;;;;;;;;;19.67;43.64;100319.19;104114;1288;62148;-83
2023/04/20 04:24:25;;;;;;;;;;;;;;;19.66;43.63;100322.80;103904;1284;62130;-83
2023/04/20 04:26:51;;;;;;;;;;;;;;;19.66;43.79;100332.64;103736;1288;62121;-83
2023/04/20 04:29:17;;;;;;;;;;;;;;;19.65;43.70;100335.39;103921;1283;62239;-81
2023/04/20 04:31:43;;;;;;;;;;;;;;;19.64;43.63;100335.08;104340;1288;62696;-82
2023/04/20 04:34:08;;;;;;;;;;;;;;;19.65;43.65;100333.98;104312;1288;62069;-83
2023/04/20 04:36:35;;;;;;;;;;;;;;;19.65;43.70;100330.41;104173;1288;62152;-83
2023/04/20 04:39:01;;;;;;;;;;;;;;;19.65;43.72;100328.27;103973;1282;62193;-82
2023/04/20 04:41:27;;;;;;;;;;;;;;;19.65;43.73;100327.02;104150;1288;62059;-83
2023/04/20 04:43:53;;;;;;;;;;;;;;;19.65;43.59;100324.30;104523;1287;62165;-83
2023/04/20 04:46:18;;;;;;;;;;;;;;;19.64;43.48;100325.80;104355;1283;62120;-83
2023/04/20 04:48:45;;;;;;;;;;;;;;;19.65;43.67;100326.09;104711;1282;62155;-83
2023/04/20 04:51:10;;;;;;;;;;;;;;;19.66;43.52;100326.55;105207;1287;62204;-81
2023/04/20 04:53:36;;;;;;;;;;;;;;;19.67;43.59;100328.46;104907;1288;62183;-83
2023/04/20 04:56:02;;;;;;;;;;;;;;;19.66;43.68;100332.48;105223;1282;62076;-83
2023/04/20 04:58:28;;;;;;;;;;;;;;;19.65;43.67;100334.35;105018;1283;62050;-83
2023/04/20 05:00:56;;;;;;;;;;;;;;;19.64;43.76;100331.88;105594;1283;62187;-82
2023/04/20 05:03:22;;;;;;;;;;;;;;;19.65;43.72;100330.38;105823;1283;73614;-81
2023/04/20 05:05:47;;;;;;;;;;;;;;;19.66;43.89;100330.00;105410;1288;60649;-81
2023/04/20 05:08:12;;;;;;;;;;;;;;;19.66;43.91;100330.29;105449;1283;62190;-81
2023/04/20 05:10:38;;;;;;;;;;;;;;;19.68;43.83;100339.31;105601;1288;60565;-81
2023/04/20 05:13:03;;;;;;;;;;;;;;;19.69;43.81;100331.91;105770;1283;62081;-81
2023/04/20 05:15:29;;;;;;;;;;;;;;;19.70;43.96;100328.80;105689;1287;62119;-81
2023/04/20 05:17:54;;;;;;;;;;;;;;;19.72;43.88;100334.36;105487;1283;60404;-81
2023/04/20 05:20:20;;;;;;;;;;;;;;;19.73;44.02;100341.26;105578;1283;61311;-81
2023/04/20 05:22:46;;;;;;;;;;;;;;;19.74;43.89;100341.69;105743;1287;60476;-81
2023/04/20 05:25:12;;;;;;;;;;;;;;;19.75;43.86;100338.77;105395;1287;62285;-81
2023/04/20 05:27:38;;;;;;;;;;;;;;;19.76;43.81;100346.52;105526;1282;61072;-81
2023/04/20 05:30:04;;;;;;;;;;;;;;;19.77;43.76;100347.52;105299;1284;76792;-81
2023/04/20 05:32:29;;;;;;;;;;;;;;;19.79;43.74;100349.77;105211;1283;62094;-81
2023/04/20 05:34:55;;;;;;;;;;;;;;;19.79;43.88;100348.14;105201;1283;62042;-82
2023/04/20 05:37:20;;;;;;;;;;;;;;;19.79;43.84;100352.58;105267;1282;62177;-81
2023/04/20 05:39:46;;;;;;;;;;;;;;;19.80;43.62;100351.83;105654;1283;62359;-81
2023/04/20 05:42:11;;;;;;;;;;;;;;;19.81;43.73;100356.96;105344;1288;76132;-81
2023/04/20 05:44:38;;;;;;;;;;;;;;;19.81;43.75;100358.73;105563;1288;62185;-82
2023/04/20 05:47:05;;;;;;;;;;;;;;;19.82;43.72;100360.59;105363;1288;62737;-82
2023/04/20 05:49:31;;;;;;;;;;;;;;;19.83;43.72;100361.08;105377;1286;61946;-81
2023/04/20 05:51:56;;;;;;;;;;;;;;;19.84;43.81;100364.91;105314;1288;62103;-82
2023/04/20 05:54:22;;;;;;;;;;;;;;;19.84;43.61;100364.77;105439;1288;61951;-82
2023/04/20 05:56:47;;;;;;;;;;;;;;;19.82;43.68;100367.40;105437;1282;60478;-81
2023/04/20 05:59:13;;;;;;;;;;;;;;;19.82;43.86;100369.55;105391;1288;60496;-82
2023/04/20 06:01:39;;;;;;;;;;;;;;;19.83;43.87;100368.58;105573;1288;73698;-81
2023/04/20 06:04:04;;;;;;;;;;;;;;;19.84;43.75;100370.84;105699;1283;62120;-81
2023/04/20 06:06:30;;;;;;;;;;;;;;;19.86;43.81;100372.81;105575;1283;61462;-82
2023/04/20 06:08:56;;;;;;;;;;;;;;;19.87;43.77;100376.11;105318;1282;61910;-81
2023/04/20 06:11:22;;;;;;;;;;;;;;;19.90;43.96;100379.48;105385;1289;60326;-80
2023/04/20 06:13:47;;;;;;;;;;;;;;;19.93;43.92;100382.84;104955;1286;62057;-80
2023/04/20 06:16:13;;;;;;;;;;;;;;;19.97;43.90;100386.67;105143;1288;76718;-80
2023/04/20 06:18:38;;;;;;;;;;;;;;;20.00;43.90;100388.03;105666;1286;61097;-80
2023/04/20 06:21:04;;;;;;;;;;;;;;;20.04;44.00;100388.13;105227;1283;62194;-80
2023/04/20 06:23:29;;;;;;;;;;;;;;;20.08;44.08;100384.59;104272;1289;62308;-80
2023/04/20 06:25:55;;;;;;;;;;;;;;;20.11;43.93;100381.71;104585;1289;62257;-79
2023/04/20 06:28:20;;;;;;;;;;;;;;;20.14;43.80;100380.82;104440;1289;63626;-81
2023/04/20 06:30:46;;;;;;;;;;;;;;;20.16;44.03;100377.61;104845;1283;62104;-83
2023/04/20 06:33:16;;;;;;;;;;;;;;;20.18;43.84;100381.42;105176;1293;60707;-82
2023/04/20 06:35:42;;;;;;;;;;;;;;;20.20;43.90;100383.56;105025;1287;72461;-82
2023/04/20 06:38:07;;;;;;;;;;;;;;;20.22;43.89;100391.11;104965;1287;62153;-82
2023/04/20 06:40:32;;;;;;;;;;;;;;;20.23;43.90;100391.88;104985;1288;62114;-82
2023/04/20 06:42:58;;;;;;;;;;;;;;;20.25;43.73;100396.91;104896;1283;62123;-82
2023/04/20 06:45:23;;;;;;;;;;;;;;;20.26;43.85;100398.82;105130;1284;62094;-79
2023/04/20 06:47:49;;;;;;;;;;;;;;;20.28;43.82;100404.10;105209;1287;73545;-81
2023/04/20 06:50:15;;;;;;;;;;;;;;;20.28;43.97;100405.46;105217;1284;61361;-82
2023/04/20 06:52:40;;;;;;;;;;;;;;;20.28;44.05;100411.73;105429;1283;60467;-82
2023/04/20 06:55:06;;;;;;;;;;;;;;;20.24;43.94;100415.42;105451;1284;62108;-81
2023/04/20 06:57:31;;;;;;;;;;;;;;;20.15;43.94;100421.10;105726;1288;62015;-82
2023/04/20 06:59:57;;;;;;;;;;;;;;;20.09;43.98;100427.20;105734;1284;62063;-82
2023/04/20 07:02:23;;;;;;;;;;;;;;;20.06;44.14;100426.88;105435;1288;74322;-82
2023/04/20 07:04:49;;;;;;;;;;;;;;;20.05;44.26;100425.39;105119;1285;635491;-82
2023/04/20 07:07:14;;;;;;;;;;;;;;;20.05;44.29;100426.42;105198;1286;62107;-81
2023/04/20 07:09:41;;;;;;;;;;;;;;;20.07;44.52;100432.23;105135;1283;60821;-82
2023/04/20 07:12:07;;;;;;;;;;;;;;;20.07;44.69;100430.62;105206;1283;62181;-81
2023/04/20 07:14:32;;;;;;;;;;;;;;;20.05;44.64;100430.89;105470;1288;62136;-80
2023/04/20 07:16:57;;;;;;;;;;;;;;;20.05;44.69;100432.90;105128;1289;62184;-81
2023/04/20 07:19:23;;;;;;;;;;;;;;;20.05;44.73;100428.73;105163;1283;62085;-80
2023/04/20 07:21:48;;;;;;;;;;;;;;;20.08;44.83;100429.46;105225;1283;62172;-81
2023/04/20 07:24:14;;;;;;;;;;;;;;;20.10;44.95;100428.23;105621;1285;62129;-81
2023/04/20 07:26:39;;;;;;;;;;;;;;;20.13;45.10;100430.53;105416;1288;61040;-81
2023/04/20 07:29:05;;;;;;;;;;;;;;;20.15;45.19;100432.34;105288;1284;61511;-81
2023/04/20 07:31:30;;;;;;;;;;;;;;;20.18;45.30;100434.83;105348;1283;62133;-81
2023/04/20 07:33:56;;;;;;;;;;;;;;;20.20;45.22;100435.20;105088;1283;62171;-81
2023/04/20 07:36:22;;;;;;;;;;;;;;;20.21;45.28;100434.95;105218;1283;62172;-81
2023/04/20 07:38:50;;;;;;;;;;;;;;;20.23;45.37;100435.48;105389;1289;60822;-81
2023/04/20 07:41:16;;;;;;;;;;;;;;;20.24;45.42;100441.48;105314;1283;61973;-81
2023/04/20 07:43:41;;;;;;;;;;;;;;;20.25;45.42;100446.58;105380;1283;62365;-81
2023/04/20 07:46:06;;;;;;;;;;;;;;;20.26;45.59;100452.56;105051;1283;62108;-81
2023/04/20 07:48:52;;;;;;;;;;;;;;;20.28;45.56;100456.46;104969;1286;62250;-81
2023/04/20 07:51:18;;;;;;;;;;;;;;;20.28;45.55;100457.34;105140;1286;60381;-82
2023/04/20 07:53:43;;;;;;;;;;;;;;;20.27;45.46;100458.80;105035;1283;63430;-82
2023/04/20 07:56:09;;;;;;;;;;;;;;;20.28;45.62;100462.86;105260;1285;62200;-82
2023/04/20 07:58:37;;;;;;;;;;;;;;;20.29;45.59;100464.06;106744;1283;60714;-82
2023/04/20 08:01:03;;;;;;;;;;;;;;;20.28;45.67;100461.05;106120;1284;62111;-82
2023/04/20 08:03:29;;;;;;;;;;;;;;;20.29;45.88;100459.95;105596;1283;60398;-83
2023/04/20 08:05:54;;;;;;;;;;;;;;;20.28;45.80;100457.89;105753;1286;61282;-82
2023/04/20 08:08:19;;;;;;;;;;;;;;;20.25;45.83;100460.17;105609;1282;60711;-81
2023/04/20 08:10:45;;;;;;;;;;;;;;;20.23;46.05;100457.48;105642;1285;60787;-82
2023/04/20 08:13:11;;;;;;;;;;;;;;;20.21;46.11;100455.27;105577;1286;62222;-81
2023/04/20 08:15:36;;;;;;;;;;;;;;;20.20;46.12;100457.89;105711;1283;59953;-81
2023/04/20 08:18:02;;;;;;;;;;;;;;;20.20;46.32;100459.83;105448;1282;62213;-81
2023/04/20 08:20:28;;;;;;;;;;;;;;;20.21;46.26;100461.73;105484;1283;62107;-81
2023/04/20 08:22:53;;;;;;;;;;;;;;;20.23;46.49;100461.94;105410;1285;62111;-82
2023/04/20 08:25:19;;;;;;;;;;;;;;;20.24;46.33;100464.35;105358;1288;62117;-81
2023/04/20 08:27:45;;;;;;;;;;;;;;;20.25;46.47;100457.33;105735;1283;61121;-81
2023/04/20 08:30:11;;;;;;;;;;;;;;;20.26;46.47;100452.61;105595;1283;62212;-81
2023/04/20 08:32:37;;;;;;;;;;;;;;;20.27;46.46;100452.70;105366;1286;62098;-81
2023/04/20 08:35:03;;;;;;;;;;;;;;;20.29;46.59;100452.39;105033;1288;62190;-81
2023/04/20 08:37:28;;;;;;;;;;;;;;;20.31;46.37;100455.71;106192;1282;60165;-81
2023/04/20 08:39:54;;;;;;;;;;;;;;;20.32;46.50;100457.21;105009;1282;63334;-81
2023/04/20 08:42:19;;;;;;;;;;;;;;;20.32;46.51;100459.19;105072;1283;72265;-81
2023/04/20 08:44:45;;;;;;;;;;;;;;;20.33;46.54;100458.56;104957;1285;62094;-81
2023/04/20 08:47:11;;;;;;;;;;;;;;;20.33;46.53;100456.73;105269;1288;62108;-81
2023/04/20 08:49:38;;;;;;;;;;;;;;;20.34;46.63;100457.59;105237;1283;62059;-81
2023/04/20 08:52:04;;;;;;;;;;;;;;;20.35;46.77;100457.52;105049;1283;60208;-81
2023/04/20 08:54:30;;;;;;;;;;;;;;;20.36;46.63;100455.84;104956;1287;62177;-81
2023/04/20 08:56:55;;;;;;;;;;;;;;;20.36;46.74;100455.46;105057;1282;62097;-82
2023/04/20 08:59:21;;;;;;;;;;;;;;;20.36;46.76;100458.85;105320;1284;62043;-81
2023/04/20 09:01:46;;;;;;;;;;;;;;;20.36;46.96;100455.67;105424;1282;63480;-82
2023/04/20 09:04:15;;;;;;;;;;;;;;;20.32;47.04;100450.90;105421;1282;62337;-82
2023/04/20 09:06:49;;;;;;;;;;;;;;;20.29;47.21;100446.89;105556;1286;75292;-81
2023/04/20 09:09:14;;;;;;;;;;;;;;;20.27;47.33;100450.96;105331;1285;62193;-81
2023/04/20 09:11:41;;;;;;;;;;;;;;;20.24;47.31;100456.48;105440;1282;60349;-82
2023/04/20 09:14:09;;;;;;;;;;;;;;;20.22;47.39;100450.80;105462;1282;62036;-81
2023/04/20 09:16:38;;;;;;;;;;;;;;;20.18;47.34;100447.13;106561;1288;76224;-81
2023/04/20 09:19:03;;;;;;;;;;;;;;;20.17;47.47;100442.23;106633;1283;61121;-81
2023/04/20 09:21:30;;;;;;;;;;;;;;;20.16;47.42;100441.55;106512;1283;61121;-81
2023/04/20 09:23:55;;;;;;;;;;;;;;;20.16;47.30;100446.74;106610;1285;61601;-81
2023/04/20 09:26:21;;;;;;;;;;;;;;;20.15;47.36;100448.41;106690;1282;60662;-81
2023/04/20 09:28:47;;;;;;;;;;;;;;;20.12;47.46;100449.34;106658;1282;59854;-81
2023/04/20 09:31:21;;;;;;;;;;;;;;;20.11;47.61;100453.02;105426;1288;62184;-80
2023/04/20 09:33:56;;;;;;;;;;;;;;;20.10;47.49;100452.34;105151;1286;73427;-81
2023/04/20 09:36:21;;;;;;;;;;;;;;;20.09;47.35;100456.13;105176;1282;75272;-81
2023/04/20 09:38:47;;;;;;;;;;;;;;;20.07;47.37;100456.33;105552;1283;61204;-80
2023/04/20 09:41:13;;;;;;;;;;;;;;;20.04;47.34;100458.13;105373;1283;62131;-80
2023/04/20 09:43:38;;;;;;;;;;;;;;;20.06;47.38;100457.14;105383;1288;60474;-80
2023/04/20 09:46:04;;;;;;;;;;;;;;;20.07;47.41;100460.94;105030;1288;62273;-80
2023/04/20 09:48:29;;;;;;;;;;;;;;;20.09;47.33;100459.70;105174;1287;75375;-81
2023/04/20 09:50:54;;;;;;;;;;;;;;;20.12;47.23;100461.66;104847;1283;62171;-81
2023/04/20 09:53:20;;;;;;;;;;;;;;;20.14;47.49;100460.30;104637;1282;62773;-82
2023/04/20 09:55:47;;;;;;;;;;;;;;;20.16;47.41;100460.89;104697;1285;62067;-82
2023/04/20 09:58:12;;;;;;;;;;;;;;;20.17;47.20;100458.31;104795;1282;62171;-82
2023/04/20 10:00:38;;;;;;;;;;;;;;;20.17;47.39;100458.98;105277;1286;61576;-83
2023/04/20 10:03:05;;;;;;;;;;;;;;;20.15;47.22;100453.42;105451;1282;62084;-82
2023/04/20 10:05:31;;;;;;;;;;;;;;;20.09;47.44;100445.98;106414;1283;60921;-82
2023/04/20 10:08:02;;;;;;;;;;;;;;;20.04;47.31;100446.02;106326;1282;60153;-83
2023/04/20 10:10:28;;;;;;;;;;;;;;;20.01;47.61;100444.45;106449;1286;75119;-82
2023/04/20 10:12:54;;;;;;;;;;;;;;;20.02;47.70;100446.70;106427;1283;60140;-83
2023/04/20 10:15:20;;;;;;;;;;;;;;;19.99;47.56;100444.43;106605;1283;60494;-83
2023/04/20 10:17:46;;;;;;;;;;;;;;;19.96;47.65;100442.30;106508;1282;60197;-83
2023/04/20 10:20:24;;;;;;;;;;;;;;;19.97;47.72;100439.93;106576;1283;60515;-83
2023/04/20 10:22:50;;;;;;;;;;;;;;;19.97;47.81;100441.88;106617;1285;60841;-83
2023/04/20 10:25:23;;;;;;;;;;;;;;;19.97;47.81;100443.81;106698;1282;60040;-82
2023/04/20 10:27:55;;;;;;;;;;;;;;;19.98;47.86;100439.29;105475;1283;72230;-82
2023/04/20 10:30:21;;;;;;;;;;;;;;;19.99;47.73;100437.95;106690;1282;76047;-82
2023/04/20 10:32:47;;;;;;;;;;;;;;;20.00;47.73;100436.84;106071;1282;61848;-82
2023/04/20 10:35:14;;;;;;;;;;;;;;;20.01;47.68;100432.80;105401;1282;60709;-82
2023/04/20 10:37:47;;;;;;;;;;;;;;;20.00;47.65;100435.73;105444;1288;62052;-82
2023/04/20 10:40:12;;;;;;;;;;;;;;;19.99;47.68;100432.64;105506;1283;75210;-82
2023/04/20 10:42:42;;;;;;;;;;;;;;;19.99;47.65;100433.19;105528;1282;60321;-82
2023/04/20 10:45:08;;;;;;;;;;;;;;;19.98;47.62;100432.70;105708;1283;62069;-82
2023/04/20 10:47:36;;;;;;;;;;;;;;;19.98;47.73;100430.75;105340;1283;62059;-82
2023/04/20 10:50:09;;;;;;;;;;;;;;;19.97;47.55;100431.34;105423;1285;76174;-82
2023/04/20 10:52:37;;;;;;;;;;;;;;;19.95;47.49;100431.82;105385;1282;61295;-82
2023/04/20 10:55:03;;;;;;;;;;;;;;;19.95;47.55;100430.59;105315;1282;62293;-82
2023/04/20 10:57:29;;;;;;;;;;;;;;;19.95;47.57;100426.29;105570;1283;60505;-82
2023/04/20 10:59:54;;;;;;;;;;;;;;;19.94;47.63;100428.88;105447;1283;60587;-82
2023/04/20 11:02:19;;;;;;;;;;;;;;;19.91;47.69;100428.49;105859;1283;60266;-83
2023/04/20 11:04:45;;;;;;;;;;;;;;;19.90;47.65;100430.92;105821;1282;60564;-82
2023/04/20 11:07:12;;;;;;;;;;;;;;;19.88;47.79;100428.52;105765;1282;62107;-82
2023/04/20 11:09:38;;;;;;;;;;;;;;;19.89;47.69;100427.60;106727;1282;72461;-81
2023/04/20 11:12:06;;;;;;;;;;;;;;;19.94;48.04;100429.73;106576;1282;59957;-82
2023/04/20 11:14:33;;;;;;;;;;;;;;;19.99;48.15;100426.19;106601;1285;60690;-83
2023/04/20 11:16:58;;;;;;;;;;;;;;;20.01;48.18;100428.52;106676;1282;60318;-83
2023/04/20 11:19:31;;;;;;;;;;;;;;;20.02;48.28;100423.99;106744;1283;60082;-82
2023/04/20 11:21:57;;;;;;;;;;;;;;;20.02;48.11;100422.41;106320;1285;76470;-82
2023/04/20 11:24:23;;;;;;;;;;;;;;;20.02;48.10;100423.96;105134;1283;62264;-82
2023/04/20 11:26:49;;;;;;;;;;;;;;;20.03;48.04;100419.44;105242;1282;62608;-82
2023/04/20 11:29:28;;;;;;;;;;;;;;;20.04;48.03;100419.04;105073;1287;62265;-82
2023/04/20 11:31:54;;;;;;;;;;;;;;;20.06;48.04;100413.00;104878;1282;75574;-82
2023/04/20 11:34:20;;;;;;;;;;;;;;;20.07;48.00;100414.67;104783;1283;62130;-82
2023/04/20 11:36:46;;;;;;;;;;;;;;;20.08;47.87;100415.29;104530;1282;62869;-81
2023/04/20 11:39:16;;;;;;;;;;;;;;;20.09;47.77;100406.11;104767;1287;62188;-82
2023/04/20 11:41:42;;;;;;;;;;;;;;;20.11;47.77;100405.14;104743;1285;76031;-83
2023/04/20 11:44:08;;;;;;;;;;;;;;;20.11;47.74;100401.56;105088;1282;62180;-82
2023/04/20 11:46:36;;;;;;;;;;;;;;;20.10;47.60;100403.55;105169;1282;61642;-83
2023/04/20 11:49:03;;;;;;;;;;;;;;;20.10;47.58;100400.02;105219;1283;73927;-82
2023/04/20 11:51:28;;;;;;;;;;;;;;;20.10;47.63;100399.85;105018;1282;62033;-82
2023/04/20 11:53:54;;;;;;;;;;;;;;;20.10;47.52;100399.10;105736;1282;62184;-82
2023/04/20 11:56:19;;;;;;;;;;;;;;;20.10;47.64;100400.69;105557;1283;62203;-82
2023/04/20 11:58:45;;;;;;;;;;;;;;;20.11;47.56;100398.33;105413;1282;60894;-82
2023/04/20 12:01:10;;;;;;;;;;;;;;;20.12;47.58;100398.11;105550;1288;62111;-83
2023/04/20 12:03:36;;;;;;;;;;;;;;;20.10;47.44;100393.90;105397;1282;60533;-82
2023/04/20 12:06:01;;;;;;;;;;;;;;;20.08;47.34;100390.68;105670;1283;62170;-82
2023/04/20 12:08:27;;;;;;;;;;;;;;;20.07;47.34;100390.96;105656;1283;62079;-82
2023/04/20 12:10:52;;;;;;;;;;;;;;;20.07;47.30;100387.90;105298;1282;62152;-82
2023/04/20 12:13:18;;;;;;;;;;;;;;;20.08;47.33;100384.45;105407;1282;62101;-82
2023/04/20 12:15:43;;;;;;;;;;;;;;;20.08;47.24;100383.02;105330;1283;62169;-82
2023/04/20 12:18:09;;;;;;;;;;;;;;;20.09;47.16;100384.55;105087;1282;62079;-82
2023/04/20 12:20:35;;;;;;;;;;;;;;;20.08;47.07;100379.20;104837;1283;62104;-82